createdAt,value
2023-02-05T00:01:01.841Z,30.67
2023-02-05T00:05:53.459Z,30.75
2023-02-05T00:10:44.141Z,30.48
2023-02-05T00:15:36.705Z,31.98
2023-02-05T00:20:26.810Z,31.63
2023-02-05T00:25:20.823Z,32.05
2023-02-05T00:30:15.396Z,30.45
2023-02-05T00:35:10.351Z,30.50
2023-02-05T00:40:01.908Z,30.08
2023-02-05T00:44:53.263Z,30.53
2023-02-05T00:49:47.868Z,30.13
2023-02-05T00:54:41.742Z,29.17
2023-02-05T00:59:33.040Z,28.75
2023-02-05T01:04:27.166Z,25.98
2023-02-05T01:09:19.837Z,24.08
2023-02-05T01:14:12.378Z,22.65
2023-02-05T01:19:02.258Z,19.52
2023-02-05T01:23:52.031Z,15.20
2023-02-05T01:28:42.409Z,12.27
2023-02-05T01:33:36.135Z,10.50
2023-02-05T01:38:28.092Z,6.97
2023-02-05T01:43:21.748Z,5.53
2023-02-05T01:48:15.493Z,4.90
2023-02-05T01:53:14.803Z,4.67
2023-02-05T01:58:09.101Z,3.05
2023-02-05T02:03:00.460Z,2.25
2023-02-05T02:07:51.954Z,2.23
2023-02-05T02:12:49.609Z,2.00
2023-02-05T02:17:42.960Z,1.75
2023-02-05T02:22:59.184Z,1.40
2023-02-05T02:28:00.808Z,1.47
2023-02-05T02:33:01.571Z,0.90
2023-02-05T02:37:59.780Z,0.90
2023-02-05T02:42:58.779Z,0.55
2023-02-05T02:47:53.963Z,0.83
2023-02-05T02:52:50.361Z,0.60
2023-02-05T02:57:43.543Z,0.70
2023-02-05T03:02:40.805Z,0.50
2023-02-05T03:07:37.594Z,0.90
2023-02-05T03:12:29.164Z,0.73
2023-02-05T03:17:22.361Z,0.50
2023-02-05T03:22:15.639Z,0.70
2023-02-05T03:27:05.764Z,0.60
2023-02-05T03:32:14.167Z,0.80
2023-02-05T03:37:19.992Z,0.80
2023-02-05T03:42:23.720Z,1.00
2023-02-05T03:47:27.898Z,1.00
2023-02-05T03:52:27.510Z,2.17
2023-02-05T03:57:25.058Z,2.10
2023-02-05T04:02:16.777Z,2.83
2023-02-05T04:07:09.976Z,4.35
2023-02-05T04:12:05.691Z,4.07
2023-02-05T04:16:59.036Z,5.57
2023-02-05T04:21:53.975Z,6.45
2023-02-05T04:26:45.153Z,6.63
2023-02-05T04:31:40.913Z,7.77
2023-02-05T04:36:31.526Z,8.00
2023-02-05T04:41:22.496Z,8.80
2023-02-05T04:46:19.376Z,8.32
2023-02-05T04:51:15.749Z,8.27
2023-02-05T04:56:15.384Z,7.43
2023-02-05T05:01:06.709Z,3.00
2023-02-05T05:05:59.678Z,1.05
2023-02-05T05:10:53.972Z,0.40
2023-02-05T05:15:45.076Z,0.30
2023-02-05T05:20:40.762Z,0.70
2023-02-05T05:25:32.863Z,0.40
2023-02-05T05:30:28.437Z,0.40
2023-02-05T05:35:22.167Z,0.40
2023-02-05T05:40:28.639Z,0.50
2023-02-05T05:45:20.371Z,0.80
2023-02-05T05:50:16.318Z,0.50
2023-02-05T05:55:07.580Z,0.60
2023-02-05T06:05:05.215Z,0.60
2023-02-05T06:09:57.676Z,0.40
2023-02-05T06:14:51.957Z,0.50
2023-02-05T06:19:43.358Z,0.50
2023-02-05T06:24:34.831Z,0.50
2023-02-05T06:29:32.030Z,0.50
2023-02-05T06:34:24.483Z,0.50
2023-02-05T06:39:18.168Z,0.40
2023-02-05T06:44:09.880Z,0.70
2023-02-05T06:49:12.607Z,0.50
2023-02-05T06:54:03.107Z,0.53
2023-02-05T06:58:53.258Z,0.50
2023-02-05T07:03:43.176Z,0.90
2023-02-05T07:08:37.002Z,0.60
2023-02-05T07:13:29.269Z,0.83
2023-02-05T07:18:19.578Z,1.08
2023-02-05T07:23:16.756Z,1.20
2023-02-05T07:28:13.653Z,1.88
2023-02-05T07:33:07.711Z,0.60
2023-02-05T07:37:59.090Z,1.10
2023-02-05T07:42:50.164Z,0.80
2023-02-05T07:47:43.906Z,1.30
2023-02-05T07:52:35.423Z,0.70
2023-02-05T07:57:26.671Z,1.38
2023-02-05T08:02:19.254Z,1.20
2023-02-05T08:07:15.423Z,1.43
2023-02-05T08:12:06.399Z,1.00
2023-02-05T08:17:01.294Z,1.70
2023-02-05T08:22:01.895Z,1.20
2023-02-05T08:26:56.527Z,1.30
2023-02-05T08:31:46.671Z,1.10
2023-02-05T08:36:36.736Z,1.17
2023-02-05T08:41:29.708Z,1.33
2023-02-05T08:46:31.642Z,1.63
2023-02-05T08:51:30.304Z,1.75
2023-02-05T08:56:23.454Z,1.50
2023-02-05T09:01:17.268Z,2.72
2023-02-05T09:06:14.193Z,2.67
2023-02-05T09:11:07.726Z,1.98
2023-02-05T09:16:02.252Z,2.03
2023-02-05T09:20:55.915Z,2.85
2023-02-05T09:25:55.450Z,2.25
2023-02-05T09:30:48.055Z,2.58
2023-02-05T09:35:41.502Z,2.17
2023-02-05T09:40:41.849Z,2.17
2023-02-05T09:46:00.467Z,2.58
2023-02-05T09:50:51.428Z,2.40
2023-02-05T09:55:46.153Z,3.35
2023-02-05T10:00:48.786Z,2.20
2023-02-05T10:05:48.557Z,2.77
2023-02-05T10:10:45.058Z,2.47
2023-02-05T10:15:59.784Z,2.58
2023-02-05T10:21:08.376Z,3.85
2023-02-05T10:26:15.498Z,2.30
2023-02-05T10:31:22.521Z,2.90
2023-02-05T10:36:17.390Z,2.37
2023-02-05T10:41:22.247Z,2.78
2023-02-05T10:46:34.993Z,3.43
2023-02-05T10:51:37.452Z,2.50
2023-02-05T10:56:32.809Z,2.60
2023-02-05T11:01:25.794Z,3.22
2023-02-05T11:06:20.081Z,2.70
2023-02-05T11:11:23.984Z,3.53
2023-02-05T11:16:14.690Z,2.75
2023-02-05T11:21:09.324Z,2.80
2023-02-05T11:26:05.830Z,2.45
2023-02-05T11:30:58.506Z,2.97
2023-02-05T11:35:57.869Z,2.50
2023-02-05T11:40:57.049Z,3.30
2023-02-05T11:45:56.811Z,2.13
2023-02-05T11:50:47.860Z,1.80
2023-02-05T11:55:39.985Z,1.37
2023-02-05T12:00:32.983Z,1.67
2023-02-05T12:05:34.033Z,1.67
2023-02-05T12:10:38.252Z,1.30
2023-02-05T12:15:33.529Z,1.57
2023-02-05T12:20:33.568Z,2.63
2023-02-05T12:25:30.417Z,1.38
2023-02-05T12:30:41.548Z,1.95
2023-02-05T12:35:48.877Z,1.10
2023-02-05T12:41:07.243Z,1.20
2023-02-05T12:46:09.331Z,1.38
2023-02-05T12:51:17.207Z,1.10
2023-02-05T12:56:26.792Z,1.25
2023-02-05T13:01:23.030Z,2.07
2023-02-05T13:06:22.514Z,0.77
2023-02-05T13:11:27.318Z,1.27
2023-02-05T13:16:24.665Z,0.90
2023-02-05T13:21:34.060Z,1.50
2023-02-05T13:26:46.733Z,1.65
2023-02-05T13:31:48.375Z,1.60
2023-02-05T13:37:15.111Z,1.50
2023-02-05T13:42:43.986Z,1.50
2023-02-05T13:48:05.218Z,1.30
2023-02-05T13:53:39.671Z,1.30
2023-02-05T13:58:37.240Z,1.45
2023-02-05T14:04:05.099Z,1.70
2023-02-05T14:09:09.426Z,1.63
2023-02-05T14:14:43.970Z,1.20
2023-02-05T14:20:08.849Z,0.95
2023-02-05T14:25:05.915Z,1.85
2023-02-05T14:30:06.843Z,2.00
2023-02-05T14:35:08.100Z,1.37
2023-02-05T14:40:14.281Z,1.30
2023-02-05T14:45:21.160Z,1.88
2023-02-05T14:50:26.673Z,1.20
2023-02-05T14:55:33.980Z,1.67
2023-02-05T15:00:42.013Z,1.80
2023-02-05T15:05:39.533Z,1.70
2023-02-05T15:10:39.827Z,2.30
2023-02-05T15:15:36.145Z,1.80
2023-02-05T15:20:40.719Z,1.97
2023-02-05T15:25:42.312Z,1.80
2023-02-05T15:30:52.433Z,2.50
2023-02-05T15:35:50.133Z,2.20
2023-02-05T15:40:45.219Z,2.10
2023-02-05T15:45:40.086Z,1.50
2023-02-05T15:50:33.642Z,1.67
2023-02-05T15:55:31.196Z,2.45
2023-02-05T16:00:26.236Z,2.88
2023-02-05T16:05:23.869Z,1.95
2023-02-05T16:10:23.495Z,2.17
2023-02-05T16:15:20.308Z,2.83
2023-02-05T16:20:29.840Z,2.43
2023-02-05T16:25:39.051Z,2.97
2023-02-05T16:30:41.016Z,2.80
2023-02-05T16:35:40.017Z,2.67
2023-02-05T16:40:39.928Z,2.20
2023-02-05T16:45:38.429Z,2.13
2023-02-05T16:50:44.951Z,2.53
2023-02-05T16:55:43.881Z,2.67
2023-02-05T17:00:39.108Z,2.63
2023-02-05T17:05:35.079Z,2.87
2023-02-05T17:10:35.804Z,3.30
2023-02-05T17:15:46.636Z,1.65
2023-02-05T18:09:32.328Z,2.13
2023-02-05T18:14:25.750Z,2.60
2023-02-05T18:19:16.318Z,1.98
2023-02-05T18:24:06.665Z,1.73
2023-02-05T18:28:57.333Z,2.28
2023-02-05T18:33:58.493Z,1.35
2023-02-05T18:38:50.333Z,3.45
2023-02-05T18:43:41.855Z,3.20
2023-02-05T18:48:33.365Z,2.88
2023-02-05T18:53:31.725Z,4.13
2023-02-05T18:58:27.852Z,2.72
2023-02-05T19:03:19.325Z,3.08
2023-02-05T19:08:13.306Z,4.67
2023-02-05T19:13:05.891Z,3.78
2023-02-05T19:22:45.510Z,1.60
2023-02-05T19:27:40.419Z,3.13
2023-02-05T19:32:34.737Z,3.90
2023-02-05T19:37:30.117Z,4.13
2023-02-05T19:42:22.763Z,3.67
2023-02-05T19:47:13.879Z,4.28
2023-02-05T19:52:10.602Z,4.20
2023-02-05T19:57:03.919Z,4.35
2023-02-05T20:01:59.563Z,4.53
2023-02-05T20:06:52.628Z,4.03
2023-02-05T20:11:49.573Z,5.27
2023-02-05T20:16:42.435Z,4.75
2023-02-05T20:21:37.697Z,5.60
2023-02-05T20:26:29.645Z,5.07
2023-02-05T20:31:41.627Z,4.93
2023-02-05T20:36:33.956Z,5.43
2023-02-05T20:41:26.639Z,5.10
2023-02-05T20:46:20.432Z,3.88
2023-02-05T20:51:15.122Z,4.63
2023-02-05T20:56:05.468Z,4.70
2023-02-05T21:00:56.415Z,5.20
2023-02-05T21:05:46.650Z,4.17
2023-02-05T21:10:40.780Z,5.10
2023-02-05T21:15:33.697Z,4.53
2023-02-05T21:20:31.875Z,6.13
2023-02-05T21:25:26.580Z,4.45
2023-02-05T21:30:25.594Z,4.78
2023-02-05T21:35:19.736Z,4.53
2023-02-05T21:40:14.842Z,5.60
2023-02-05T21:45:05.453Z,5.20
2023-02-05T21:49:58.687Z,4.93
2023-02-05T21:54:51.180Z,5.32
2023-02-05T21:59:44.532Z,5.55
2023-02-05T22:04:38.550Z,5.53
2023-02-05T22:09:32.722Z,6.28
2023-02-05T22:14:29.555Z,5.55
2023-02-05T22:19:28.610Z,6.07
2023-02-05T22:24:25.807Z,5.72
2023-02-05T22:29:20.380Z,5.67
2023-02-05T22:34:12.126Z,5.22
2023-02-05T22:39:04.142Z,5.18
2023-02-05T22:43:56.615Z,5.72
2023-02-05T22:48:51.681Z,5.80
2023-02-05T22:53:42.715Z,5.32
2023-02-05T22:58:35.397Z,6.10
2023-02-05T23:03:28.605Z,5.53
2023-02-05T23:08:23.675Z,7.07
2023-02-05T23:13:15.262Z,5.43
2023-02-05T23:18:07.910Z,5.97
2023-02-05T23:23:00.024Z,5.70
2023-02-05T23:27:52.758Z,5.95
2023-02-05T23:32:42.758Z,5.78
2023-02-05T23:37:32.869Z,6.05
2023-02-05T23:42:23.586Z,5.30
2023-02-05T23:47:17.939Z,5.93
2023-02-05T23:52:09.342Z,4.53
2023-02-05T23:57:01.561Z,5.10
